Terminal Aerodrome Forecast
Issued by NWS

Home | Current Version | Previous Version | Text Only | Print | Product List | Glossary On
Versions: 1 2 3 4 5 6 7 8 9 10 11 12 13 14 15 16 17 18 19 20 21 22
000
FTUS43 KIND 201700
TAFLAF
TAF
KLAF 201725Z 2018/2118 25007KT P6SM SCT050 SCT100 BKN250
     FM210100 21004KT P6SM SCT050 BKN250
     FM210800 20002KT 4SM -SHRA BR VCTS BKN035CB
     FM211600 18006KT P6SM SCT050 BKN250=

USA.gov is the U.S. government's official web portal to all federal, state and local government web resources and services.